Poyarkovo, Russia
Current Conditions -  °F | °C
As of 2:30 PM on Sunday 21 Dec 2014 (Local Time) from UHBB Reporting Station
Clear Clear  
Wind Chill: -6°   Ceiling: Unl
Heat Index: -6°   Visibility: 6mi
Dew Point: -18°   Wind: 0mph
Humidity: 55%   Direction: NA
Pressure: 29.8"   Gusts: NA
Location:  49.6°N, 128.68°E
Report Text: UHBB 210530Z 00000MPS CAVOK M21/M28 Q1009 NOSIG RMK QFE739/098536410250
Loading
Personal Weather Stations






























Interactive Weather Map New forecast layout! Learn more

10-Day Weather Forecast

Advertisements
Track Severe Weather on mobile